Time;durP1;ratioP1;P1;durP2;ratioP2;P2;SDS_P1;SDS_P2;PMS_P1;PMS_P2;Temp;Humidity;BMP_temperature;BMP_pressure;BME280_temperature;BME280_humidity;BME280_pressure;Samples;Min_cycle;Max_cycle;Signal;HPM_P1;HPM_P2
2021/04/17 00:00:10;;;;;;;2.80;1.42;;;5.50;99.90;;;;;;5063097;28;20115;-72
2021/04/17 00:02:37;;;;;;;5.72;1.55;;;5.50;99.90;;;;;;5064337;28;20041;-71
2021/04/17 00:05:05;;;;;;;4.10;1.40;;;5.50;99.90;;;;;;5063127;28;20029;-72
2021/04/17 00:07:31;;;;;;;5.13;2.08;;;5.50;99.90;;;;;;5064383;28;20433;-72
2021/04/17 00:09:56;;;;;;;10.23;2.30;;;5.40;99.90;;;;;;5063081;28;20520;-71
2021/04/17 00:12:22;;;;;;;6.13;1.65;;;5.30;99.90;;;;;;5064349;28;20040;-71
2021/04/17 00:14:50;;;;;;;5.22;1.63;;;5.30;99.90;;;;;;5063011;28;20040;-71
2021/04/17 00:17:17;;;;;;;2.90;1.80;;;5.30;99.90;;;;;;5064296;28;20017;-71
2021/04/17 00:19:44;;;;;;;2.97;1.83;;;5.20;99.90;;;;;;5063741;28;20048;-73
2021/04/17 00:22:10;;;;;;;7.25;1.60;;;5.20;99.90;;;;;;5062625;28;20048;-72
2021/04/17 00:24:36;;;;;;;4.75;1.80;;;5.10;99.90;;;;;;5064133;28;20029;-71
2021/04/17 00:27:03;;;;;;;4.30;1.70;;;5.10;99.90;;;;;;5064348;28;20037;-71
2021/04/17 00:29:30;;;;;;;3.83;1.90;;;5.10;99.90;;;;;;5064137;28;20028;-72
2021/04/17 00:31:56;;;;;;;5.82;1.83;;;5.00;99.90;;;;;;5064138;28;20048;-72
2021/04/17 00:34:21;;;;;;;7.53;2.42;;;5.00;99.90;;;;;;5063891;28;20025;-72
2021/04/17 00:36:47;;;;;;;2.97;1.75;;;5.00;99.90;;;;;;5062636;28;20036;-73
2021/04/17 00:39:13;;;;;;;2.35;1.75;;;5.00;99.90;;;;;;5063913;28;20032;-73
2021/04/17 00:41:38;;;;;;;5.30;1.70;;;4.90;99.90;;;;;;5062598;28;20041;-71
2021/04/17 00:44:05;;;;;;;6.40;1.73;;;4.90;99.90;;;;;;5063860;28;20033;-72
2021/04/17 00:46:32;;;;;;;5.78;1.80;;;4.90;99.90;;;;;;5064297;28;20037;-70
2021/04/17 00:48:57;;;;;;;3.15;2.13;;;4.80;99.90;;;;;;5063749;28;20114;-70
2021/04/17 00:51:23;;;;;;;5.10;1.83;;;4.80;99.90;;;;;;5063921;28;20121;-71
2021/04/17 00:53:49;;;;;;;6.57;2.38;;;4.80;99.90;;;;;;5063677;28;20040;-71
2021/04/17 00:56:18;;;;;;;5.38;2.08;;;4.80;99.90;;;;;;5063825;28;20029;-70
2021/04/17 00:58:43;;;;;;;4.53;1.90;;;4.80;99.90;;;;;;5066914;28;20025;-71
2021/04/17 01:01:09;;;;;;;26.65;2.13;;;4.70;99.90;;;;;;5067426;28;20033;-72
2021/04/17 01:03:57;;;;;;;5.80;1.92;;;4.70;99.90;;;;;;5067278;28;20024;-70
2021/04/17 01:06:32;;;;;;;2.53;1.63;;;4.70;99.90;;;;;;5067193;28;20032;-70
2021/04/17 01:09:09;;;;;;;4.93;2.20;;;4.70;99.90;;;;;;5066014;28;20095;-69
2021/04/17 01:11:55;;;;;;;11.65;2.42;;;4.60;99.90;;;;;;5067417;28;20060;-72
2021/04/17 01:14:22;;;;;;;3.72;2.00;;;4.60;99.90;;;;;;5067171;28;20033;-71
2021/04/17 01:16:48;;;;;;;3.97;1.92;;;4.60;99.90;;;;;;5066878;28;20088;-72
2021/04/17 01:19:28;;;;;;;6.13;2.58;;;4.50;99.90;;;;;;5066556;28;20068;-71
2021/04/17 01:21:56;;;;;;;3.33;2.03;;;4.50;99.90;;;;;;5066898;28;20100;-70
2021/04/17 01:24:26;;;;;;;4.30;2.05;;;4.50;99.90;;;;;;5066919;28;20028;-71
2021/04/17 01:26:52;;;;;;;9.07;3.85;;;4.50;99.90;;;;;;5066925;28;20029;-70
2021/04/17 01:29:19;;;;;;;11.77;3.08;;;4.50;99.90;;;;;;5066880;28;20029;-70
2021/04/17 01:31:44;;;;;;;6.32;3.33;;;4.40;99.90;;;;;;5066781;28;20047;-71
2021/04/17 01:34:11;;;;;;;7.72;3.95;;;4.40;99.90;;;;;;5065365;28;20088;-72
2021/04/17 01:36:39;;;;;;;6.65;3.00;;;4.40;99.90;;;;;;5066916;28;20029;-70
2021/04/17 01:39:15;;;;;;;5.30;3.15;;;4.30;99.90;;;;;;5066750;28;20021;-73
2021/04/17 01:41:45;;;;;;;11.52;3.75;;;4.40;99.90;;;;;;5066524;28;20052;-72
2021/04/17 01:44:20;;;;;;;6.35;2.47;;;4.30;99.90;;;;;;5065254;28;20029;-72
2021/04/17 01:46:49;;;;;;;7.72;3.58;;;4.30;99.90;;;;;;5066537;28;20025;-71
2021/04/17 01:49:17;;;;;;;9.55;3.80;;;4.30;99.90;;;;;;5066338;28;20017;-72
2021/04/17 01:51:44;;;;;;;10.75;3.20;;;4.30;99.90;;;;;;5066219;28;20029;-70
2021/04/17 01:54:23;;;;;;;6.75;3.58;;;4.30;99.90;;;;;;5066481;28;20029;-71
2021/04/17 01:56:50;;;;;;;7.82;3.33;;;4.20;99.90;;;;;;5066196;28;20032;-71
2021/04/17 01:59:19;;;;;;;7.40;3.63;;;4.20;99.90;;;;;;5066122;28;20032;-71
2021/04/17 02:01:46;;;;;;;6.10;3.70;;;4.20;99.90;;;;;;5066172;28;20044;-73
2021/04/17 02:04:13;;;;;;;18.13;3.38;;;4.20;99.90;;;;;;5066315;28;20063;-73
2021/04/17 02:06:38;;;;;;;6.80;3.20;;;4.10;99.90;;;;;;5064768;28;20120;-72
2021/04/17 02:09:05;;;;;;;8.15;2.85;;;4.20;99.90;;;;;;5065943;28;20083;-73
2021/04/17 02:11:32;;;;;;;7.95;3.35;;;4.10;99.90;;;;;;5066282;28;20029;-71
2021/04/17 02:14:00;;;;;;;7.40;3.38;;;4.10;99.90;;;;;;5065857;28;20032;-69
2021/04/17 02:16:34;;;;;;;11.10;3.97;;;4.10;99.90;;;;;;5065967;28;20028;-71
2021/04/17 02:19:04;;;;;;;9.48;4.47;;;4.10;99.90;;;;;;5065548;28;20029;-69
2021/04/17 02:21:38;;;;;;;7.82;4.05;;;4.10;99.90;;;;;;5065766;28;20064;-72
2021/04/17 02:24:07;;;;;;;11.00;4.30;;;4.10;99.90;;;;;;5064608;28;20029;-74
2021/04/17 02:26:34;;;;;;;16.70;4.18;;;4.10;99.90;;;;;;5065780;28;20037;-72
2021/04/17 02:29:00;;;;;;;11.98;3.47;;;4.10;99.90;;;;;;5065806;28;20098;-70
2021/04/17 02:31:27;;;;;;;5.82;3.40;;;4.10;99.90;;;;;;5065827;28;20025;-72
2021/04/17 02:33:53;;;;;;;6.50;3.20;;;4.10;99.90;;;;;;5065493;28;20021;-70
2021/04/17 02:36:19;;;;;;;20.13;4.45;;;4.10;99.90;;;;;;5065721;28;20068;-70
2021/04/17 02:38:44;;;;;;;13.68;3.65;;;4.00;99.90;;;;;;5065479;28;20021;-71
2021/04/17 02:41:11;;;;;;;5.90;3.30;;;3.90;99.90;;;;;;5065457;28;20045;-71
2021/04/17 02:43:36;;;;;;;9.38;3.85;;;3.90;99.90;;;;;;5065486;28;20029;-73
2021/04/17 02:46:03;;;;;;;9.25;3.45;;;3.90;99.90;;;;;;5064215;28;20170;-73
2021/04/17 02:48:28;;;;;;;6.50;3.20;;;3.90;99.90;;;;;;5065331;28;20017;-72
2021/04/17 02:50:54;;;;;;;7.93;3.83;;;3.90;99.90;;;;;;5065396;28;20055;-71
2021/04/17 02:53:19;;;;;;;7.63;3.88;;;3.90;99.90;;;;;;5065167;28;20025;-72
2021/04/17 02:55:45;;;;;;;9.55;3.88;;;3.90;99.90;;;;;;5064887;28;20103;-71
2021/04/17 02:58:11;;;;;;;11.15;3.85;;;3.90;99.90;;;;;;5065222;28;20052;-72
2021/04/17 03:00:36;;;;;;;4.97;3.22;;;3.90;99.90;;;;;;5065301;28;20373;-73
2021/04/17 03:03:02;;;;;;;10.20;4.15;;;3.90;99.90;;;;;;5065231;28;20055;-71
2021/04/17 03:05:28;;;;;;;10.35;4.05;;;3.80;99.90;;;;;;5065085;28;20029;-73
2021/04/17 03:07:54;;;;;;;12.57;3.92;;;3.80;99.90;;;;;;5065006;28;20086;-71
2021/04/17 03:10:19;;;;;;;8.35;4.00;;;3.80;99.90;;;;;;5063683;28;20029;-72
2021/04/17 03:12:45;;;;;;;5.78;3.20;;;3.80;99.90;;;;;;5064799;28;20033;-70
2021/04/17 03:15:12;;;;;;;13.27;4.68;;;3.80;99.90;;;;;;5064880;28;20021;-74
2021/04/17 03:17:37;;;;;;;12.75;4.35;;;3.70;99.90;;;;;;5064739;28;20025;-72
2021/04/17 03:20:08;;;;;;;7.05;3.70;;;3.70;99.90;;;;;;5063850;28;20531;-74
2021/04/17 03:22:35;;;;;;;8.30;4.13;;;3.70;99.90;;;;;;5064829;28;20120;-72
2021/04/17 03:25:04;;;;;;;5.45;3.40;;;3.70;99.90;;;;;;5063466;28;20032;-70
2021/04/17 03:27:30;;;;;;;16.90;3.83;;;3.70;99.90;;;;;;5063387;28;20032;-72
2021/04/17 03:29:58;;;;;;;9.15;3.85;;;3.70;99.90;;;;;;5056808;28;20080;-71
2021/04/17 03:32:24;;;;;;;8.15;4.00;;;3.70;99.90;;;;;;5053088;28;20044;-71
2021/04/17 03:34:50;;;;;;;7.75;4.13;;;3.60;99.90;;;;;;5043094;28;20029;-72
2021/04/17 03:37:15;;;;;;;8.75;4.13;;;3.60;99.90;;;;;;5043148;28;20125;-71
2021/04/17 03:39:41;;;;;;;7.60;4.18;;;3.60;99.90;;;;;;5043542;28;20029;-72
2021/04/17 03:42:07;;;;;;;10.90;4.43;;;3.50;99.90;;;;;;5044445;28;20040;-71
2021/04/17 03:44:33;;;;;;;10.07;4.10;;;3.50;99.90;;;;;;5043420;28;20029;-72
2021/04/17 03:46:59;;;;;;;8.48;3.97;;;3.50;99.90;;;;;;5044520;28;20037;-70
2021/04/17 03:49:25;;;;;;;14.18;3.72;;;3.40;99.90;;;;;;5044398;28;20036;-71
2021/04/17 03:51:50;;;;;;;7.57;3.20;;;3.40;99.90;;;;;;5044368;28;20109;-71
2021/04/17 03:54:16;;;;;;;8.82;3.65;;;3.40;99.90;;;;;;5044520;28;20036;-71
2021/04/17 03:56:42;;;;;;;7.97;3.90;;;3.30;99.90;;;;;;5043192;28;20045;-71
2021/04/17 03:59:07;;;;;;;8.50;3.90;;;3.40;99.90;;;;;;5044528;28;20025;-71
2021/04/17 04:01:34;;;;;;;7.35;3.42;;;3.30;99.90;;;;;;5044528;28;20041;-72
2021/04/17 04:04:00;;;;;;;9.15;4.07;;;3.30;99.90;;;;;;5044594;28;20033;-72
2021/04/17 04:06:26;;;;;;;9.13;3.33;;;3.20;99.90;;;;;;5043019;28;20033;-73
2021/04/17 04:08:54;;;;;;;8.75;3.58;;;3.20;99.90;;;;;;5052418;28;20028;-72
2021/04/17 04:11:20;;;;;;;8.63;3.72;;;3.20;99.90;;;;;;5062874;28;20056;-72
2021/04/17 04:13:45;;;;;;;14.30;4.55;;;3.30;99.90;;;;;;5063609;28;20017;-71
2021/04/17 04:16:11;;;;;;;11.07;4.45;;;3.30;99.90;;;;;;5062978;28;20498;-73
2021/04/17 04:18:37;;;;;;;8.27;3.60;;;3.30;99.90;;;;;;5064360;28;20426;-72
2021/04/17 04:21:03;;;;;;;20.38;4.38;;;3.40;99.90;;;;;;5064071;28;20108;-71
2021/04/17 04:23:28;;;;;;;11.70;3.85;;;3.40;99.90;;;;;;5064173;28;20086;-71
2021/04/17 04:25:54;;;;;;;5.63;3.35;;;3.50;99.90;;;;;;5063994;28;20033;-72
2021/04/17 04:28:20;;;;;;;7.25;3.60;;;3.50;99.90;;;;;;5064179;28;20021;-72
2021/04/17 04:30:46;;;;;;;10.82;4.78;;;3.70;99.90;;;;;;5064490;28;20539;-72
2021/04/17 04:33:12;;;;;;;10.27;3.85;;;3.70;99.90;;;;;;5067741;28;20021;-71
2021/04/17 04:35:38;;;;;;;10.50;3.67;;;3.80;99.90;;;;;;5067812;28;20049;-72
2021/04/17 04:38:04;;;;;;;6.43;4.07;;;3.80;99.90;;;;;;5068034;28;20063;-71
2021/04/17 04:40:30;;;;;;;8.95;3.17;;;3.90;99.90;;;;;;5067930;28;20025;-70
2021/04/17 04:42:55;;;;;;;7.60;3.47;;;3.90;99.90;;;;;;5066440;28;20044;-72
2021/04/17 04:45:22;;;;;;;11.82;3.53;;;3.90;99.90;;;;;;5067893;28;20021;-73
2021/04/17 04:47:48;;;;;;;7.47;3.75;;;3.90;99.90;;;;;;5067626;28;20055;-70
2021/04/17 04:50:14;;;;;;;4.70;2.53;;;3.90;99.90;;;;;;5067581;28;20537;-71
2021/04/17 04:52:40;;;;;;;7.55;3.33;;;4.00;99.90;;;;;;5067702;28;20025;-72
2021/04/17 04:55:07;;;;;;;5.80;2.85;;;4.00;99.90;;;;;;5066181;28;20067;-71
2021/04/17 04:57:35;;;;;;;6.07;2.50;;;4.00;99.90;;;;;;5066235;28;20520;-72
2021/04/17 05:00:02;;;;;;;4.70;2.25;;;4.10;99.90;;;;;;5067576;28;20079;-71
2021/04/17 05:02:27;;;;;;;3.92;2.35;;;4.10;99.90;;;;;;5065204;28;20036;-73
2021/04/17 05:04:53;;;;;;;3.92;1.88;;;4.20;99.90;;;;;;5066862;28;20029;-72
2021/04/17 05:07:18;;;;;;;4.80;2.88;;;4.20;99.90;;;;;;5067118;28;20036;-71
2021/04/17 05:09:44;;;;;;;5.55;3.03;;;4.20;99.90;;;;;;5067160;28;20028;-70
2021/04/17 05:12:10;;;;;;;5.88;2.88;;;4.20;99.90;;;;;;5067162;28;20104;-70
2021/04/17 05:14:35;;;;;;;4.82;2.22;;;4.30;99.90;;;;;;5065818;28;20021;-70
2021/04/17 05:17:01;;;;;;;4.78;2.38;;;4.30;99.90;;;;;;5066013;28;20036;-71
2021/04/17 05:19:26;;;;;;;4.07;1.83;;;4.30;99.90;;;;;;5066728;28;20572;-71
2021/04/17 05:21:52;;;;;;;6.88;1.90;;;4.30;99.90;;;;;;5066911;28;20424;-69
2021/04/17 05:24:18;;;;;;;3.78;2.25;;;4.50;99.90;;;;;;5067030;28;20059;-69
2021/04/17 05:26:44;;;;;;;4.45;2.13;;;4.40;99.90;;;;;;5066920;28;20075;-70
2021/04/17 05:29:09;;;;;;;4.55;1.88;;;4.50;99.90;;;;;;5066628;28;20053;-71
2021/04/17 05:31:35;;;;;;;3.28;1.55;;;4.50;99.90;;;;;;5064135;28;20052;-71
2021/04/17 05:34:02;;;;;;;6.07;1.70;;;4.50;99.90;;;;;;5065560;28;20025;-70
2021/04/17 05:36:27;;;;;;;4.65;1.67;;;4.60;99.90;;;;;;5066561;28;20067;-69
2021/04/17 05:38:53;;;;;;;5.93;2.03;;;4.60;99.90;;;;;;5066694;28;20052;-71
2021/04/17 05:41:22;;;;;;;4.82;1.50;;;4.70;99.90;;;;;;5066483;28;20044;-70
2021/04/17 05:43:47;;;;;;;3.08;1.73;;;4.80;99.90;;;;;;5064526;28;20036;-71
2021/04/17 05:46:13;;;;;;;6.43;2.00;;;4.80;99.90;;;;;;5065030;28;20021;-72
2021/04/17 05:48:39;;;;;;;4.45;1.85;;;4.80;99.90;;;;;;5066558;28;20025;-73
2021/04/17 05:51:05;;;;;;;2.92;1.63;;;4.90;99.90;;;;;;5065194;28;20029;-73
2021/04/17 05:53:31;;;;;;;5.25;1.75;;;5.00;99.90;;;;;;5066500;28;20017;-74
2021/04/17 05:55:56;;;;;;;5.47;2.08;;;5.00;99.90;;;;;;5066643;28;20040;-73
2021/04/17 05:58:22;;;;;;;3.63;1.55;;;5.00;99.90;;;;;;5066175;28;20025;-71
2021/04/17 06:00:47;;;;;;;4.35;1.58;;;5.10;99.90;;;;;;5064854;28;20092;-72
2021/04/17 06:03:13;;;;;;;4.45;1.83;;;5.10;99.90;;;;;;5066071;28;20037;-73
2021/04/17 06:05:39;;;;;;;5.00;2.05;;;5.20;99.90;;;;;;5066273;28;20029;-72
2021/04/17 06:08:06;;;;;;;3.00;1.50;;;5.20;99.90;;;;;;5066055;28;20057;-73
2021/04/17 06:10:31;;;;;;;4.53;2.05;;;5.30;99.90;;;;;;5066070;28;20033;-73
2021/04/17 06:12:58;;;;;;;4.07;1.67;;;5.30;99.90;;;;;;5057733;28;20041;-72
2021/04/17 06:15:24;;;;;;;1.40;0.98;;;5.40;99.90;;;;;;5045960;28;20025;-74
2021/04/17 06:17:50;;;;;;;3.35;1.60;;;5.40;99.90;;;;;;5045439;28;20048;-73
2021/04/17 06:20:16;;;;;;;2.88;1.65;;;5.40;99.90;;;;;;5045282;28;20045;-74
2021/04/17 06:22:41;;;;;;;4.28;1.73;;;5.50;99.90;;;;;;5044052;28;20069;-74
2021/04/17 06:25:09;;;;;;;3.22;1.98;;;5.50;99.90;;;;;;5045953;28;20108;-74
2021/04/17 06:27:34;;;;;;;3.30;2.22;;;5.60;99.90;;;;;;5044970;28;20165;-74
2021/04/17 06:30:01;;;;;;;2.65;1.60;;;5.60;99.90;;;;;;5045932;28;20022;-74
2021/04/17 06:32:26;;;;;;;2.50;1.55;;;5.70;99.90;;;;;;5045395;28;20033;-73
2021/04/17 06:34:52;;;;;;;2.30;1.50;;;5.70;99.90;;;;;;5045511;28;20047;-73
2021/04/17 06:37:17;;;;;;;2.45;1.50;;;5.80;99.90;;;;;;5045490;28;20449;-72
2021/04/17 06:39:43;;;;;;;10.02;1.67;;;5.80;99.90;;;;;;5045520;28;20051;-73
2021/04/17 06:42:12;;;;;;;3.30;1.60;;;5.90;99.90;;;;;;5044191;28;20037;-74
2021/04/17 06:44:42;;;;;;;8.98;1.70;;;5.90;99.90;;;;;;5045554;28;20057;-74
2021/04/17 06:47:15;;;;;;;14.25;2.40;;;6.00;99.90;;;;;;5045473;28;20021;-74
2021/04/17 06:49:42;;;;;;;9.32;2.33;;;6.10;99.90;;;;;;5045198;28;20053;-73
2021/04/17 06:52:11;;;;;;;2.13;1.40;;;6.10;99.90;;;;;;5045685;28;20033;-74
2021/04/17 06:54:38;;;;;;;4.70;1.63;;;6.20;99.90;;;;;;5045271;28;20025;-75
2021/04/17 06:57:05;;;;;;;6.88;1.58;;;6.10;99.90;;;;;;5045704;28;20026;-73
2021/04/17 06:59:32;;;;;;;3.75;1.83;;;6.20;99.90;;;;;;5045191;28;20044;-74
2021/04/17 07:01:58;;;;;;;7.63;2.22;;;6.30;99.90;;;;;;5045104;28;20099;-74
2021/04/17 07:04:25;;;;;;;12.10;2.33;;;6.40;99.90;;;;;;5045018;28;20055;-71
2021/04/17 07:06:52;;;;;;;3.78;1.63;;;6.50;99.90;;;;;;5045185;28;20029;-73
2021/04/17 07:09:20;;;;;;;3.50;1.50;;;6.60;99.90;;;;;;5043918;28;20033;-72
2021/04/17 07:11:46;;;;;;;6.38;1.48;;;6.70;99.90;;;;;;5044899;28;20033;-73
2021/04/17 07:14:14;;;;;;;12.30;2.05;;;6.60;99.90;;;;;;5043605;28;20029;-73
2021/04/17 07:16:55;;;;;;;5.38;1.88;;;6.80;99.90;;;;;;5045264;28;20029;-76
2021/04/17 07:19:22;;;;;;;4.50;2.03;;;6.80;99.90;;;;;;5044786;28;20077;-72
2021/04/17 07:21:48;;;;;;;3.50;1.38;;;7.00;99.90;;;;;;5043079;28;20063;-74
2021/04/17 07:24:24;;;;;;;3.08;1.80;;;7.10;99.90;;;;;;5062141;28;20076;-72
2021/04/17 07:26:51;;;;;;;2.28;1.33;;;7.10;99.90;;;;;;5064271;28;20052;-72
2021/04/17 07:29:16;;;;;;;3.03;1.38;;;7.20;99.90;;;;;;5065758;28;20074;-72
2021/04/17 07:31:54;;;;;;;3.28;1.40;;;7.30;99.90;;;;;;5064993;28;20096;-71
2021/04/17 07:34:22;;;;;;;3.53;1.23;;;7.40;99.90;;;;;;5065070;28;20087;-72
2021/04/17 07:36:58;;;;;;;10.63;2.35;;;7.40;99.90;;;;;;5065011;28;20033;-70
2021/04/17 07:39:42;;;;;;;2.22;1.70;;;7.50;99.90;;;;;;5063527;28;20412;-72
2021/04/17 07:42:09;;;;;;;5.70;1.27;;;7.50;99.90;;;;;;5064862;28;20044;-72
2021/04/17 07:44:47;;;;;;;4.15;1.73;;;7.50;99.90;;;;;;5064967;28;20021;-73
2021/04/17 07:47:12;;;;;;;2.40;1.55;;;7.50;99.90;;;;;;5064343;28;20029;-73
2021/04/17 07:49:40;;;;;;;4.30;1.63;;;7.60;99.90;;;;;;5062068;28;20037;-73
2021/04/17 07:52:10;;;;;;;3.10;1.58;;;7.60;99.90;;;;;;5062374;28;20036;-72
2021/04/17 07:54:37;;;;;;;4.95;1.50;;;7.60;99.90;;;;;;5064367;28;20029;-73
2021/04/17 07:57:11;;;;;;;5.38;1.65;;;7.60;99.90;;;;;;5064296;28;20029;-72
2021/04/17 07:59:38;;;;;;;4.50;1.90;;;7.60;99.90;;;;;;5064294;28;20025;-73
2021/04/17 08:02:05;;;;;;;2.95;1.50;;;7.60;99.90;;;;;;5062400;28;20049;-72
2021/04/17 08:04:31;;;;;;;3.33;1.30;;;7.70;99.90;;;;;;5064640;28;20040;-73
2021/04/17 08:07:00;;;;;;;5.47;1.95;;;7.80;99.90;;;;;;5066699;28;20037;-72
2021/04/17 08:09:27;;;;;;;5.75;1.67;;;7.90;99.90;;;;;;5068330;28;20025;-72
2021/04/17 08:11:55;;;;;;;1.75;1.00;;;7.90;99.90;;;;;;5068417;28;20044;-72
2021/04/17 08:14:23;;;;;;;2.50;1.20;;;8.00;99.90;;;;;;5067209;28;20075;-71
2021/04/17 08:16:49;;;;;;;2.78;1.65;;;8.20;99.90;;;;;;5068382;28;20029;-73
2021/04/17 08:19:16;;;;;;;5.50;1.73;;;8.30;99.90;;;;;;5068089;28;20057;-73
2021/04/17 08:21:42;;;;;;;6.70;1.35;;;8.40;99.90;;;;;;5068103;28;20033;-71
2021/04/17 08:24:10;;;;;;;4.07;1.70;;;8.60;99.90;;;;;;5060789;28;20031;-72
2021/04/17 08:26:37;;;;;;;2.15;0.95;;;8.70;99.90;;;;;;5062384;28;20029;-73
2021/04/17 08:29:03;;;;;;;3.97;1.75;;;8.80;99.90;;;;;;5068401;28;20024;-72
2021/04/17 08:31:35;;;;;;;4.88;2.17;;;8.80;99.90;;;;;;5067425;28;20021;-73
2021/04/17 08:34:06;;;;;;;2.75;1.73;;;8.90;99.90;;;;;;5068350;28;20021;-73
2021/04/17 08:36:35;;;;;;;4.68;1.75;;;9.00;99.90;;;;;;5068322;28;20543;-73
2021/04/17 08:39:01;;;;;;;2.78;1.45;;;9.00;99.90;;;;;;5068297;28;20119;-73
2021/04/17 08:41:38;;;;;;;3.10;1.60;;;9.10;99.90;;;;;;5067950;28;20779;-71
2021/04/17 08:44:31;;;;;;;3.35;1.15;;;9.10;99.90;;;;;;5068069;28;20056;-73
2021/04/17 08:46:57;;;;;;;7.10;1.77;;;9.10;99.90;;;;;;5067700;28;20369;-73
2021/04/17 08:49:25;;;;;;;3.63;1.80;;;9.20;99.90;;;;;;5068119;28;20029;-73
2021/04/17 08:51:52;;;;;;;22.60;1.52;;;9.20;99.90;;;;;;5060647;28;20026;-74
2021/04/17 08:54:20;;;;;;;4.75;1.58;;;9.30;99.90;;;;;;5057116;28;20036;-75
2021/04/17 08:56:54;;;;;;;1.80;0.98;;;9.30;99.90;;;;;;5057517;28;20088;-73
2021/04/17 08:59:19;;;;;;;1.65;0.88;;;9.40;99.90;;;;;;5050988;28;20040;-72
2021/04/17 09:01:46;;;;;;;2.22;1.10;;;9.50;99.90;;;;;;5048367;28;20029;-72
2021/04/17 09:04:13;;;;;;;5.82;0.90;;;9.50;99.90;;;;;;5060226;28;20370;-73
2021/04/17 09:06:42;;;;;;;1.70;1.13;;;9.50;99.90;;;;;;5063092;28;20030;-75
2021/04/17 09:09:20;;;;;;;2.35;0.88;;;9.50;99.90;;;;;;5047625;28;20037;-72
2021/04/17 09:11:48;;;;;;;8.18;1.60;;;9.60;99.90;;;;;;5047305;28;20032;-72
2021/04/17 09:14:26;;;;;;;5.72;1.33;;;9.70;99.90;;;;;;5047549;28;20030;-72
2021/04/17 09:16:52;;;;;;;2.35;1.15;;;9.80;99.90;;;;;;5046784;28;20025;-73
2021/04/17 09:19:40;;;;;;;1.90;0.95;;;10.00;99.90;;;;;;5045031;28;20049;-73
2021/04/17 09:22:24;;;;;;;2.35;0.85;;;10.30;99.90;;;;;;5047290;28;20040;-74
2021/04/17 09:24:55;;;;;;;2.20;1.13;;;10.50;99.90;;;;;;5047035;28;20057;-73
2021/04/17 09:27:28;;;;;;;1.83;1.10;;;10.70;99.90;;;;;;5048766;28;20025;-71
2021/04/17 09:30:09;;;;;;;1.13;0.77;;;10.90;99.90;;;;;;5065996;28;20570;-72
2021/04/17 09:32:47;;;;;;;3.60;1.20;;;11.40;99.90;;;;;;5065532;28;20029;-75
2021/04/17 09:35:23;;;;;;;4.85;1.20;;;11.80;99.90;;;;;;5057782;28;20048;-75
2021/04/17 09:38:15;;;;;;;3.63;0.80;;;12.10;99.90;;;;;;5045006;28;20083;-73
2021/04/17 09:40:51;;;;;;;1.63;1.00;;;12.30;99.90;;;;;;5045855;28;20025;-73
2021/04/17 09:43:22;;;;;;;5.30;0.90;;;12.50;99.90;;;;;;5051339;28;20036;-74
2021/04/17 09:45:50;;;;;;;2.40;1.00;;;12.60;99.90;;;;;;5061563;28;20028;-74
2021/04/17 09:48:19;;;;;;;6.30;1.77;;;12.70;99.90;;;;;;5043352;28;20061;-73
2021/04/17 09:50:45;;;;;;;4.22;1.35;;;12.80;99.90;;;;;;5043598;28;20049;-74
2021/04/17 09:53:18;;;;;;;2.65;1.05;;;12.80;99.90;;;;;;5046114;28;20040;-75
2021/04/17 09:55:55;;;;;;;5.25;1.45;;;13.10;99.90;;;;;;5045078;28;20032;-72
2021/04/17 09:58:25;;;;;;;2.22;1.13;;;13.60;99.90;;;;;;5046529;28;20033;-74
2021/04/17 10:00:52;;;;;;;1.90;0.95;;;13.90;99.90;;;;;;5046145;28;20048;-71
2021/04/17 10:03:34;;;;;;;1.90;1.02;;;14.00;99.90;;;;;;5045683;28;20052;-71
2021/04/17 10:06:00;;;;;;;1.83;0.70;;;14.10;99.90;;;;;;5045087;28;20052;-73
2021/04/17 10:08:31;;;;;;;3.25;0.90;;;14.40;99.90;;;;;;5045586;28;20033;-72
2021/04/17 10:10:56;;;;;;;3.05;0.82;;;14.70;99.90;;;;;;5044866;28;20136;-72
2021/04/17 10:13:44;;;;;;;7.65;1.35;;;15.00;99.90;;;;;;5045963;28;20087;-72
2021/04/17 10:16:13;;;;;;;2.08;0.90;;;15.20;99.90;;;;;;5046170;28;20030;-72
2021/04/17 10:18:44;;;;;;;1.45;0.80;;;15.40;99.90;;;;;;5046260;28;20028;-71
2021/04/17 10:21:10;;;;;;;2.45;0.88;;;15.60;99.90;;;;;;5045970;28;20068;-72
2021/04/17 10:23:36;;;;;;;2.05;1.00;;;15.50;99.90;;;;;;5045764;28;20116;-72
2021/04/17 10:26:10;;;;;;;2.53;1.10;;;15.50;99.90;;;;;;5054946;28;20067;-71
2021/04/17 10:28:37;;;;;;;1.75;0.73;;;15.50;99.90;;;;;;5057991;28;20091;-72
2021/04/17 10:31:18;;;;;;;2.80;0.95;;;15.80;99.90;;;;;;5056264;28;20044;-72
2021/04/17 10:33:46;;;;;;;0.77;0.70;;;15.90;99.90;;;;;;5055461;28;20030;-72
2021/04/17 10:36:20;;;;;;;2.38;0.70;;;16.20;99.90;;;;;;5059923;28;20029;-74
2021/04/17 10:38:48;;;;;;;0.55;0.50;;;16.50;97.50;;;;;;5054436;28;20393;-74
2021/04/17 10:41:27;;;;;;;0.80;0.45;;;16.50;99.10;;;;;;5045168;28;20065;-70
2021/04/17 10:44:13;;;;;;;2.50;1.08;;;16.40;97.80;;;;;;5044506;28;20032;-73
2021/04/17 10:46:43;;;;;;;1.60;0.68;;;16.50;95.70;;;;;;5045278;28;20059;-72
2021/04/17 10:49:10;;;;;;;1.77;0.80;;;16.60;96.30;;;;;;5045765;28;20053;-72
2021/04/17 10:51:38;;;;;;;1.17;0.73;;;16.50;96.40;;;;;;5050527;28;20072;-71
2021/04/17 10:54:04;;;;;;;1.40;0.70;;;16.20;95.30;;;;;;5060332;28;20080;-72
2021/04/17 10:56:31;;;;;;;1.83;0.77;;;15.90;93.30;;;;;;5064205;28;20098;-72
2021/04/17 10:58:59;;;;;;;1.50;0.60;;;15.50;93.20;;;;;;5065038;28;20025;-72
2021/04/17 11:01:27;;;;;;;0.73;0.43;;;15.30;93.70;;;;;;5065096;28;20523;-71
2021/04/17 11:03:58;;;;;;;1.40;0.60;;;15.20;91.90;;;;;;5063687;28;20025;-72
2021/04/17 11:06:26;;;;;;;1.38;0.77;;;15.00;91.50;;;;;;5065154;28;20032;-73
2021/04/17 11:09:10;;;;;;;1.83;0.98;;;14.70;92.40;;;;;;5064915;28;20468;-72
2021/04/17 11:11:37;;;;;;;0.93;0.60;;;14.60;92.60;;;;;;5065060;28;20504;-71
2021/04/17 11:14:05;;;;;;;2.08;0.60;;;14.60;93.00;;;;;;5065062;28;20035;-72
2021/04/17 11:16:46;;;;;;;0.70;0.60;;;14.70;93.60;;;;;;5064511;28;20052;-72
2021/04/17 11:19:36;;;;;;;0.98;0.68;;;15.00;93.40;;;;;;5064816;28;20041;-76
2021/04/17 11:22:24;;;;;;;1.13;0.80;;;15.50;92.00;;;;;;5064726;28;20036;-73
2021/04/17 11:24:58;;;;;;;1.80;0.75;;;15.90;91.40;;;;;;5064654;28;20033;-74
2021/04/17 11:27:25;;;;;;;1.38;0.70;;;16.10;92.70;;;;;;5063342;28;20060;-74
2021/04/17 11:29:50;;;;;;;1.42;1.02;;;16.60;91.80;;;;;;5064740;28;20036;-73
2021/04/17 11:32:16;;;;;;;2.95;0.88;;;16.60;91.10;;;;;;5063627;28;20137;-74
2021/04/17 11:34:43;;;;;;;1.92;0.90;;;16.60;91.80;;;;;;5064476;28;20032;-73
2021/04/17 11:37:08;;;;;;;0.98;0.60;;;16.70;91.80;;;;;;5064804;28;20085;-74
2021/04/17 11:39:34;;;;;;;0.65;0.40;;;17.00;91.10;;;;;;5064596;28;20032;-74
2021/04/17 11:41:59;;;;;;;1.95;0.90;;;17.20;89.30;;;;;;5063897;28;20079;-74
2021/04/17 11:44:25;;;;;;;0.80;0.63;;;17.20;91.10;;;;;;5064492;28;20025;-72
2021/04/17 11:46:51;;;;;;;0.90;0.50;;;17.20;90.80;;;;;;5064895;28;20470;-73
2021/04/17 11:49:16;;;;;;;1.35;0.52;;;17.10;88.80;;;;;;5064357;28;20029;-73
2021/04/17 11:51:42;;;;;;;3.35;0.98;;;17.10;89.10;;;;;;5058322;28;20036;-73
2021/04/17 11:54:08;;;;;;;1.10;0.65;;;17.10;90.40;;;;;;5054258;28;20033;-74
2021/04/17 11:56:35;;;;;;;0.88;0.63;;;17.30;91.20;;;;;;5045533;28;20528;-74
2021/04/17 11:59:01;;;;;;;1.25;0.90;;;17.70;90.00;;;;;;5043087;28;20029;-73
2021/04/17 12:01:27;;;;;;;0.88;0.65;;;18.10;90.20;;;;;;5044326;28;20042;-74
2021/04/17 12:03:53;;;;;;;3.85;0.90;;;18.60;86.00;;;;;;5044230;28;20029;-73
2021/04/17 12:06:18;;;;;;;1.45;0.85;;;18.70;82.80;;;;;;5044273;28;20025;-72
2021/04/17 12:08:44;;;;;;;1.67;0.90;;;18.80;85.60;;;;;;5044287;28;20029;-74
2021/04/17 12:11:10;;;;;;;6.50;0.52;;;18.80;84.10;;;;;;5044447;28;20028;-72
2021/04/17 12:13:35;;;;;;;1.75;0.70;;;18.60;85.40;;;;;;5044341;28;20048;-73
2021/04/17 12:16:02;;;;;;;1.45;0.82;;;18.50;83.20;;;;;;5044352;28;20044;-72
2021/04/17 12:18:28;;;;;;;2.28;0.95;;;18.40;83.20;;;;;;5044309;28;20017;-75
2021/04/17 12:20:54;;;;;;;1.55;0.90;;;18.40;83.10;;;;;;5044093;28;20045;-73
2021/04/17 12:23:19;;;;;;;2.83;0.80;;;18.20;82.10;;;;;;5044067;28;20072;-74
2021/04/17 12:25:45;;;;;;;3.20;0.90;;;18.00;83.90;;;;;;5043847;28;20021;-73
2021/04/17 12:28:11;;;;;;;1.10;0.80;;;17.70;84.10;;;;;;5044117;28;20059;-74
2021/04/17 12:30:38;;;;;;;3.47;0.90;;;17.50;85.50;;;;;;5043879;28;20092;-73
2021/04/17 12:33:05;;;;;;;4.85;1.05;;;17.30;85.20;;;;;;5044430;28;20025;-73
2021/04/17 12:35:31;;;;;;;0.95;0.60;;;17.30;86.60;;;;;;5044138;28;20034;-73
2021/04/17 12:37:57;;;;;;;0.50;0.47;;;17.20;85.20;;;;;;5044030;28;20045;-72
2021/04/17 12:40:22;;;;;;;2.17;1.13;;;17.00;85.80;;;;;;5043648;28;20036;-73
2021/04/17 12:42:48;;;;;;;1.33;0.80;;;16.70;85.70;;;;;;5043610;28;20033;-71
2021/04/17 12:45:14;;;;;;;1.13;0.90;;;16.70;88.40;;;;;;5043992;28;20087;-74
2021/04/17 12:47:40;;;;;;;3.28;1.00;;;17.20;88.30;;;;;;5043805;28;20466;-74
2021/04/17 12:50:08;;;;;;;1.23;0.82;;;17.70;84.60;;;;;;5044918;28;20063;-74
2021/04/17 12:52:34;;;;;;;4.00;0.85;;;18.20;87.20;;;;;;5051443;28;20033;-73
2021/04/17 12:55:00;;;;;;;2.55;1.10;;;18.70;86.80;;;;;;5058954;28;20517;-73
2021/04/17 12:57:26;;;;;;;1.92;1.00;;;19.10;85.60;;;;;;5067349;28;20059;-74